Time;durP1;ratioP1;P1;durP2;ratioP2;P2;SDS_P1;SDS_P2;PMS_P1;PMS_P2;Temp;Humidity;BMP_temperature;BMP_pressure;BME280_temperature;BME280_humidity;BME280_pressure;Samples;Min_cycle;Max_cycle;Signal;HPM_P1;HPM_P2
2021/05/15 00:01:23;;;;;;;35.45;20.13;;;;;;;;;;5008798;28;20028;-86
2021/05/15 00:03:48;;;;;;;33.92;19.40;;;;;;;;;;5010054;28;20461;-86
2021/05/15 00:06:13;;;;;;;38.78;20.00;;;;;;;;;;5008069;28;20091;-87
2021/05/15 00:08:38;;;;;;;38.80;20.13;;;;;;;;;;5008283;28;20022;-86
2021/05/15 00:11:06;;;;;;;44.53;23.33;;;;;;;;;;5009870;28;20014;-87
2021/05/15 00:13:31;;;;;;;43.10;23.15;;;;;;;;;;5009924;28;20087;-87
2021/05/15 00:15:56;;;;;;;59.85;27.70;;;;;;;;;;5009505;28;20022;-87
2021/05/15 00:18:21;;;;;;;53.28;28.02;;;;;;;;;;5008023;28;20022;-86
2021/05/15 00:20:46;;;;;;;63.25;31.05;;;;;;;;;;5022684;28;20025;-86
2021/05/15 00:23:12;;;;;;;64.10;32.20;;;;;;;;;;5008512;28;20380;-87
2021/05/15 00:25:37;;;;;;;64.80;32.63;;;;;;;;;;5009433;28;20066;-87
2021/05/15 00:28:02;;;;;;;63.20;32.78;;;;;;;;;;5008191;28;20479;-87
2021/05/15 00:30:27;;;;;;;70.03;34.60;;;;;;;;;;5020274;28;20044;-87
2021/05/15 00:32:53;;;;;;;74.95;37.17;;;;;;;;;;5009885;28;20010;-81
2021/05/15 00:35:18;;;;;;;74.85;34.90;;;;;;;;;;5008208;28;20029;-81
2021/05/15 00:37:44;;;;;;;64.72;32.53;;;;;;;;;;5007761;28;20021;-81
2021/05/15 00:40:10;;;;;;;67.35;34.72;;;;;;;;;;5007866;28;20030;-82
2021/05/15 00:42:35;;;;;;;74.95;35.22;;;;;;;;;;5007806;28;20087;-81
2021/05/15 00:45:01;;;;;;;66.35;31.90;;;;;;;;;;5008071;28;20029;-86
2021/05/15 00:47:26;;;;;;;69.95;34.92;;;;;;;;;;5029601;28;20492;-86
2021/05/15 00:49:52;;;;;;;73.90;33.25;;;;;;;;;;5008980;28;20435;-86
2021/05/15 00:52:17;;;;;;;68.72;33.05;;;;;;;;;;5024494;28;20464;-86
2021/05/15 00:54:43;;;;;;;66.78;32.65;;;;;;;;;;5009257;28;20156;-87
2021/05/15 00:57:11;;;;;;;66.07;33.47;;;;;;;;;;5009506;28;20101;-87
2021/05/15 00:59:37;;;;;;;63.42;32.58;;;;;;;;;;5009084;28;20038;-86
2021/05/15 01:02:03;;;;;;;64.05;31.95;;;;;;;;;;5009318;28;20111;-87
2021/05/15 01:04:28;;;;;;;57.88;30.77;;;;;;;;;;5009057;28;20029;-87
2021/05/15 01:06:53;;;;;;;58.65;30.60;;;;;;;;;;5007921;28;20022;-87
2021/05/15 01:09:19;;;;;;;56.95;30.17;;;;;;;;;;5009050;28;20026;-86
2021/05/15 01:11:44;;;;;;;55.05;29.30;;;;;;;;;;5009280;28;20407;-86
2021/05/15 01:14:10;;;;;;;59.88;29.40;;;;;;;;;;5012592;28;20018;-87
2021/05/15 01:16:35;;;;;;;57.15;28.65;;;;;;;;;;5012101;28;20030;-87
2021/05/15 01:19:01;;;;;;;57.58;29.42;;;;;;;;;;5010970;28;20496;-86
2021/05/15 01:21:26;;;;;;;61.55;30.15;;;;;;;;;;5012045;28;20025;-87
2021/05/15 01:23:51;;;;;;;57.00;28.55;;;;;;;;;;5012011;28;20022;-86
2021/05/15 01:26:17;;;;;;;51.03;28.38;;;;;;;;;;5012514;28;20022;-86
2021/05/15 01:28:43;;;;;;;50.48;27.42;;;;;;;;;;5015181;28;20108;-87
2021/05/15 01:31:08;;;;;;;57.22;28.00;;;;;;;;;;5012232;28;20599;-85
2021/05/15 01:33:33;;;;;;;52.50;26.52;;;;;;;;;;5010833;28;20025;-85
2021/05/15 01:35:59;;;;;;;55.47;27.75;;;;;;;;;;5010645;28;20121;-86
2021/05/15 01:38:24;;;;;;;49.88;26.35;;;;;;;;;;5010554;28;20093;-87
2021/05/15 01:40:49;;;;;;;61.78;28.73;;;;;;;;;;5011839;28;20488;-87
2021/05/15 01:43:20;;;;;;;57.08;26.08;;;;;;;;;;5010459;28;20033;-87
2021/05/15 01:45:46;;;;;;;53.83;26.77;;;;;;;;;;5011647;28;20025;-86
2021/05/15 01:48:17;;;;;;;54.97;26.35;;;;;;;;;;5011857;28;20063;-87
2021/05/15 01:50:53;;;;;;;59.92;27.77;;;;;;;;;;5011541;28;20461;-85
2021/05/15 01:53:18;;;;;;;57.42;27.13;;;;;;;;;;5011837;28;20053;-85
2021/05/15 01:55:44;;;;;;;57.17;26.60;;;;;;;;;;5010176;28;20014;-85
2021/05/15 01:58:09;;;;;;;61.38;26.67;;;;;;;;;;5010826;28;20095;-85
2021/05/15 02:00:34;;;;;;;52.42;25.60;;;;;;;;;;5011059;28;20057;-85
2021/05/15 02:02:59;;;;;;;55.75;26.30;;;;;;;;;;5009715;28;20032;-85
2021/05/15 02:05:24;;;;;;;55.67;27.02;;;;;;;;;;5011531;28;20022;-85
2021/05/15 02:07:49;;;;;;;59.80;27.65;;;;;;;;;;5009819;28;20034;-85
2021/05/15 02:10:15;;;;;;;55.55;25.10;;;;;;;;;;5009884;28;20446;-85
2021/05/15 02:12:40;;;;;;;53.92;24.58;;;;;;;;;;5009996;28;20033;-85
2021/05/15 02:15:07;;;;;;;53.53;25.05;;;;;;;;;;5010895;28;20059;-85
2021/05/15 02:17:32;;;;;;;49.47;25.35;;;;;;;;;;5011426;28;20049;-86
2021/05/15 02:19:57;;;;;;;56.92;24.83;;;;;;;;;;5010115;28;20026;-87
2021/05/15 02:22:22;;;;;;;55.90;26.52;;;;;;;;;;5010527;28;20100;-87
2021/05/15 02:24:47;;;;;;;55.70;25.52;;;;;;;;;;5010901;28;20025;-87
2021/05/15 02:27:13;;;;;;;53.13;24.35;;;;;;;;;;5010758;28;20461;-87
2021/05/15 02:29:38;;;;;;;55.60;24.67;;;;;;;;;;5009490;28;20022;-87
2021/05/15 02:32:03;;;;;;;53.50;23.92;;;;;;;;;;5009568;28;20024;-87
2021/05/15 02:34:28;;;;;;;50.08;23.30;;;;;;;;;;5010884;28;20036;-87
2021/05/15 02:36:54;;;;;;;47.38;22.17;;;;;;;;;;5011076;28;20032;-86
2021/05/15 02:39:19;;;;;;;56.35;25.50;;;;;;;;;;5011206;28;20022;-87
2021/05/15 02:41:44;;;;;;;50.67;24.40;;;;;;;;;;5011001;28;20054;-87
2021/05/15 02:44:09;;;;;;;56.97;26.30;;;;;;;;;;5009578;28;20022;-86
2021/05/15 02:46:34;;;;;;;54.97;24.58;;;;;;;;;;5009551;28;20026;-87
2021/05/15 02:49:00;;;;;;;55.75;23.52;;;;;;;;;;5009507;28;20069;-87
2021/05/15 02:51:25;;;;;;;45.47;22.75;;;;;;;;;;5009649;28;20117;-86
2021/05/15 02:53:51;;;;;;;53.28;24.88;;;;;;;;;;5009512;28;20042;-86
2021/05/15 02:56:16;;;;;;;58.65;24.60;;;;;;;;;;5010799;28;20068;-87
2021/05/15 02:58:41;;;;;;;56.22;25.50;;;;;;;;;;5007952;28;20029;-87
2021/05/15 03:01:06;;;;;;;54.22;24.70;;;;;;;;;;5023447;28;20022;-86
2021/05/15 03:03:31;;;;;;;52.63;23.23;;;;;;;;;;5008753;28;20445;-87
2021/05/15 03:05:58;;;;;;;54.33;24.15;;;;;;;;;;5008842;28;20113;-87
2021/05/15 03:08:24;;;;;;;54.28;23.70;;;;;;;;;;5009706;28;20032;-86
2021/05/15 03:10:49;;;;;;;55.88;24.75;;;;;;;;;;5009010;28;20026;-87
2021/05/15 03:13:14;;;;;;;57.38;25.02;;;;;;;;;;5006993;28;20022;-86
2021/05/15 03:15:39;;;;;;;59.03;23.83;;;;;;;;;;5008454;28;20346;-87
2021/05/15 03:18:04;;;;;;;54.05;23.77;;;;;;;;;;5007090;28;20021;-87
2021/05/15 03:20:29;;;;;;;55.65;24.48;;;;;;;;;;5007668;28;20026;-83
2021/05/15 03:22:55;;;;;;;52.67;24.65;;;;;;;;;;5009451;28;20496;-83
2021/05/15 03:25:21;;;;;;;53.53;23.65;;;;;;;;;;5009609;28;20045;-83
2021/05/15 03:27:46;;;;;;;54.70;24.58;;;;;;;;;;5012818;28;20021;-83
2021/05/15 03:30:12;;;;;;;50.50;22.30;;;;;;;;;;5008917;28;20105;-83
2021/05/15 03:32:40;;;;;;;58.20;25.33;;;;;;;;;;5008932;28;20072;-83
2021/05/15 03:35:06;;;;;;;54.78;24.33;;;;;;;;;;5008850;28;20053;-82
2021/05/15 03:37:31;;;;;;;54.05;23.75;;;;;;;;;;5025490;28;20484;-85
2021/05/15 03:39:57;;;;;;;55.17;23.25;;;;;;;;;;5008752;28;20032;-85
2021/05/15 03:42:22;;;;;;;50.78;22.52;;;;;;;;;;5025136;28;20030;-85
2021/05/15 03:44:47;;;;;;;54.85;23.10;;;;;;;;;;5008380;28;20058;-85
2021/05/15 03:47:12;;;;;;;59.03;24.13;;;;;;;;;;5012365;28;20076;-85
2021/05/15 03:49:37;;;;;;;50.42;22.70;;;;;;;;;;5024989;28;20540;-85
2021/05/15 03:52:03;;;;;;;55.78;24.30;;;;;;;;;;5008721;28;20476;-82
2021/05/15 03:54:28;;;;;;;49.15;23.15;;;;;;;;;;5008821;28;20117;-83
2021/05/15 03:56:53;;;;;;;54.90;22.40;;;;;;;;;;5008685;28;20026;-83
2021/05/15 03:59:18;;;;;;;53.60;23.52;;;;;;;;;;5010247;28;20022;-83
2021/05/15 04:01:45;;;;;;;58.78;24.30;;;;;;;;;;5008698;28;20426;-83
2021/05/15 04:04:11;;;;;;;59.05;25.27;;;;;;;;;;5025076;28;20070;-83
2021/05/15 04:06:36;;;;;;;55.67;25.90;;;;;;;;;;5010054;28;20029;-83
2021/05/15 04:09:01;;;;;;;56.10;23.70;;;;;;;;;;5009575;28;20057;-83
2021/05/15 04:11:37;;;;;;;56.25;24.83;;;;;;;;;;5008593;28;20022;-83
2021/05/15 04:14:06;;;;;;;61.35;25.35;;;;;;;;;;5024951;28;20362;-83
2021/05/15 04:16:48;;;;;;;57.75;24.48;;;;;;;;;;5013939;28;20061;-83
2021/05/15 04:19:13;;;;;;;53.55;24.83;;;;;;;;;;5011864;28;20022;-83
2021/05/15 04:21:38;;;;;;;63.10;25.50;;;;;;;;;;5009125;28;20044;-83
2021/05/15 04:24:04;;;;;;;57.35;25.10;;;;;;;;;;5024276;28;20469;-83
2021/05/15 04:26:29;;;;;;;52.60;23.35;;;;;;;;;;5007095;28;20017;-87
2021/05/15 04:28:55;;;;;;;64.30;26.00;;;;;;;;;;5008165;28;20108;-87
2021/05/15 04:31:20;;;;;;;46.53;22.13;;;;;;;;;;5006158;28;20460;-87
2021/05/15 04:33:45;;;;;;;54.92;25.00;;;;;;;;;;5007827;28;20038;-87
2021/05/15 04:36:10;;;;;;;53.08;23.25;;;;;;;;;;5006710;28;20528;-87
2021/05/15 04:38:35;;;;;;;56.90;24.23;;;;;;;;;;5023249;28;20014;-87
2021/05/15 04:41:00;;;;;;;59.70;25.75;;;;;;;;;;5008225;28;20026;-87
2021/05/15 04:43:26;;;;;;;60.90;25.40;;;;;;;;;;5022560;28;20029;-87
2021/05/15 04:45:52;;;;;;;54.30;23.83;;;;;;;;;;5007671;28;20527;-87
2021/05/15 04:48:17;;;;;;;57.08;25.63;;;;;;;;;;5012759;28;20029;-87
2021/05/15 04:50:42;;;;;;;59.08;26.15;;;;;;;;;;5012493;28;20407;-87
2021/05/15 04:53:08;;;;;;;58.05;24.77;;;;;;;;;;5012730;28;20025;-87
2021/05/15 04:55:33;;;;;;;53.05;24.35;;;;;;;;;;5027635;28;20024;-87
2021/05/15 04:58:00;;;;;;;57.13;24.70;;;;;;;;;;5012615;28;20494;-87
2021/05/15 05:00:25;;;;;;;51.40;24.42;;;;;;;;;;5011413;28;20354;-86
2021/05/15 05:02:51;;;;;;;54.38;24.98;;;;;;;;;;5011479;28;20051;-87
2021/05/15 05:05:16;;;;;;;57.13;25.88;;;;;;;;;;5011105;28;20030;-87
2021/05/15 05:07:42;;;;;;;57.70;24.30;;;;;;;;;;5012101;28;20018;-86
2021/05/15 05:10:08;;;;;;;57.47;24.77;;;;;;;;;;5011021;28;20109;-85
2021/05/15 05:12:33;;;;;;;54.60;23.42;;;;;;;;;;5012360;28;20101;-85
2021/05/15 05:14:58;;;;;;;56.30;24.05;;;;;;;;;;5012174;28;20491;-85
2021/05/15 05:17:23;;;;;;;49.92;23.30;;;;;;;;;;5010846;28;20469;-85
2021/05/15 05:19:49;;;;;;;52.75;25.23;;;;;;;;;;5010939;28;20022;-85
2021/05/15 05:22:14;;;;;;;53.35;24.55;;;;;;;;;;5010962;28;20064;-85
2021/05/15 05:24:40;;;;;;;62.88;25.88;;;;;;;;;;5012122;28;20037;-85
2021/05/15 05:27:08;;;;;;;61.10;26.85;;;;;;;;;;5033733;28;20037;-85
2021/05/15 05:29:35;;;;;;;60.25;27.70;;;;;;;;;;5018856;28;20030;-87
2021/05/15 05:32:00;;;;;;;66.22;28.75;;;;;;;;;;5012257;28;20029;-87
2021/05/15 05:34:25;;;;;;;67.43;28.73;;;;;;;;;;5011940;28;21002;-86
2021/05/15 05:36:51;;;;;;;71.13;30.88;;;;;;;;;;5010917;28;20045;-83
2021/05/15 05:39:17;;;;;;;67.10;27.05;;;;;;;;;;5011161;28;20029;-83
2021/05/15 05:41:43;;;;;;;68.47;29.95;;;;;;;;;;5010584;28;20082;-82
2021/05/15 05:44:08;;;;;;;71.22;28.83;;;;;;;;;;5012237;28;20474;-83
2021/05/15 05:46:34;;;;;;;65.25;29.02;;;;;;;;;;5010958;28;20128;-83
2021/05/15 05:48:59;;;;;;;72.07;31.00;;;;;;;;;;5011671;28;20026;-85
2021/05/15 05:51:24;;;;;;;72.65;29.60;;;;;;;;;;5011866;28;20072;-85
2021/05/15 05:53:50;;;;;;;65.15;25.95;;;;;;;;;;5011673;28;20026;-85
2021/05/15 05:56:16;;;;;;;69.65;28.83;;;;;;;;;;5010276;28;20018;-85
2021/05/15 05:58:44;;;;;;;67.18;30.73;;;;;;;;;;5008970;28;20056;-85
2021/05/15 06:01:09;;;;;;;73.38;30.92;;;;;;;;;;5010872;28;20094;-85
2021/05/15 06:03:34;;;;;;;69.63;31.20;;;;;;;;;;5011693;28;20532;-85
2021/05/15 06:06:00;;;;;;;79.95;30.50;;;;;;;;;;5010029;28;20048;-85
2021/05/15 06:08:25;;;;;;;74.05;30.70;;;;;;;;;;5026430;28;20029;-85
2021/05/15 06:10:51;;;;;;;75.75;29.98;;;;;;;;;;5011228;28;20010;-86
2021/05/15 06:13:18;;;;;;;73.60;30.73;;;;;;;;;;5010943;28;20014;-86
2021/05/15 06:15:43;;;;;;;73.13;30.20;;;;;;;;;;5009385;28;20055;-85
2021/05/15 06:18:09;;;;;;;64.05;28.70;;;;;;;;;;5025658;28;20110;-86
2021/05/15 06:20:34;;;;;;;68.75;30.98;;;;;;;;;;5014003;28;20110;-86
2021/05/15 06:22:59;;;;;;;75.00;32.38;;;;;;;;;;5071261;28;20035;-85
2021/05/15 06:25:24;;;;;;;79.78;32.13;;;;;;;;;;5048514;28;20034;-86
2021/05/15 06:27:50;;;;;;;75.55;33.20;;;;;;;;;;5026557;28;20010;-92
2021/05/15 06:30:15;;;;;;;74.97;33.47;;;;;;;;;;5041341;28;20069;-88
2021/05/15 06:32:41;;;;;;;75.85;29.83;;;;;;;;;;5012642;28;20068;-87
2021/05/15 06:35:06;;;;;;;58.75;25.05;;;;;;;;;;5017039;28;20036;-87
2021/05/15 06:37:32;;;;;;;68.70;32.40;;;;;;;;;;5046479;28;20114;-87
2021/05/15 06:39:57;;;;;;;68.78;33.45;;;;;;;;;;5060138;28;20044;-87
2021/05/15 06:42:22;;;;;;;70.28;32.35;;;;;;;;;;5048835;28;20034;-87
2021/05/15 06:44:48;;;;;;;55.15;26.10;;;;;;;;;;5050606;28;20037;-88
2021/05/15 06:47:14;;;;;;;71.68;34.90;;;;;;;;;;5011076;28;20385;-88
2021/05/15 06:49:39;;;;;;;70.88;32.65;;;;;;;;;;5011299;28;20033;-87
2021/05/15 06:52:05;;;;;;;61.85;26.83;;;;;;;;;;5070100;28;20031;-87
2021/05/15 06:54:30;;;;;;;69.45;33.97;;;;;;;;;;5045187;28;20016;-83
2021/05/15 06:56:55;;;;;;;63.33;30.80;;;;;;;;;;5018346;28;20029;-83
2021/05/15 06:59:20;;;;;;;70.13;33.50;;;;;;;;;;5009841;28;20025;-83
2021/05/15 07:01:47;;;;;;;64.90;30.45;;;;;;;;;;5046661;27;20116;-83
2021/05/15 07:04:12;;;;;;;65.20;31.80;;;;;;;;;;5042344;28;20026;-83
2021/05/15 07:06:37;;;;;;;66.15;29.45;;;;;;;;;;5046294;28;20374;-84
2021/05/15 07:09:04;;;;;;;65.28;30.55;;;;;;;;;;5023330;28;20051;-83
2021/05/15 07:11:29;;;;;;;51.20;26.00;;;;;;;;;;5044523;28;20026;-85
2021/05/15 07:13:54;;;;;;;52.72;26.50;;;;;;;;;;5038514;28;20062;-86
2021/05/15 07:16:20;;;;;;;53.15;26.08;;;;;;;;;;5008955;28;20045;-86
2021/05/15 07:18:45;;;;;;;48.65;25.00;;;;;;;;;;5078012;28;20022;-85
2021/05/15 07:21:10;;;;;;;40.40;19.60;;;;;;;;;;5037004;28;20034;-86
2021/05/15 07:23:35;;;;;;;39.65;21.15;;;;;;;;;;5042082;28;20030;-86
2021/05/15 07:26:00;;;;;;;35.33;19.35;;;;;;;;;;5008604;28;20107;-87
2021/05/15 07:28:26;;;;;;;36.28;21.20;;;;;;;;;;5009477;28;20025;-86
2021/05/15 07:30:51;;;;;;;37.42;19.02;;;;;;;;;;5036826;28;20027;-86
2021/05/15 07:33:17;;;;;;;33.80;19.35;;;;;;;;;;5017640;28;20029;-85
2021/05/15 07:35:42;;;;;;;32.13;18.58;;;;;;;;;;5044790;28;20445;-86
2021/05/15 07:38:07;;;;;;;32.72;16.83;;;;;;;;;;5008520;28;20028;-86
2021/05/15 07:40:32;;;;;;;31.17;16.30;;;;;;;;;;5035602;28;20018;-85
2021/05/15 07:42:58;;;;;;;29.30;16.67;;;;;;;;;;5017276;28;20083;-85
2021/05/15 07:45:23;;;;;;;29.55;16.85;;;;;;;;;;5008972;28;20068;-84
2021/05/15 07:47:48;;;;;;;26.38;16.08;;;;;;;;;;5009175;28;20017;-84
2021/05/15 07:50:14;;;;;;;25.70;14.85;;;;;;;;;;5008807;28;20503;-83
2021/05/15 07:52:40;;;;;;;28.45;14.85;;;;;;;;;;5008930;28;20109;-83
2021/05/15 07:55:06;;;;;;;22.92;11.88;;;;;;;;;;5010322;28;20017;-84
2021/05/15 07:57:31;;;;;;;24.17;13.93;;;;;;;;;;5008850;28;20072;-83
2021/05/15 07:59:56;;;;;;;18.88;10.75;;;;;;;;;;5008882;28;20351;-86
2021/05/15 08:02:21;;;;;;;26.92;13.55;;;;;;;;;;5008220;28;20034;-86
2021/05/15 08:04:47;;;;;;;25.42;11.55;;;;;;;;;;5008530;28;20021;-82
2021/05/15 08:07:12;;;;;;;19.08;11.52;;;;;;;;;;5008185;28;20018;-82
2021/05/15 08:09:37;;;;;;;20.20;11.45;;;;;;;;;;5008265;28;20026;-82
2021/05/15 08:12:03;;;;;;;23.60;13.85;;;;;;;;;;5009864;28;20025;-82
2021/05/15 08:14:28;;;;;;;20.73;10.27;;;;;;;;;;5008141;28;20022;-82
2021/05/15 08:16:53;;;;;;;21.75;12.95;;;;;;;;;;5010221;28;20009;-84
2021/05/15 08:19:18;;;;;;;14.30;9.35;;;;;;;;;;5009666;28;20030;-83
2021/05/15 08:21:44;;;;;;;15.73;8.38;;;;;;;;;;5011400;28;20014;-85
2021/05/15 08:24:09;;;;;;;17.67;10.10;;;;;;;;;;5021892;28;20029;-85
2021/05/15 08:26:36;;;;;;;17.80;11.25;;;;;;;;;;5013822;28;20109;-85
2021/05/15 08:29:02;;;;;;;15.75;10.15;;;;;;;;;;5027278;28;20027;-85
2021/05/15 08:31:27;;;;;;;22.20;10.23;;;;;;;;;;5018149;28;20426;-85
2021/05/15 08:33:53;;;;;;;17.80;10.50;;;;;;;;;;5011470;28;20037;-85
2021/05/15 08:36:18;;;;;;;19.27;9.85;;;;;;;;;;5027128;28;20038;-86
2021/05/15 08:38:43;;;;;;;16.25;10.23;;;;;;;;;;5012792;28;20010;-86
2021/05/15 08:41:09;;;;;;;18.67;11.05;;;;;;;;;;5027348;28;20025;-85
2021/05/15 08:43:38;;;;;;;17.35;10.65;;;;;;;;;;5011073;28;20034;-85
2021/05/15 08:46:04;;;;;;;21.90;11.23;;;;;;;;;;5006126;28;20025;-85
2021/05/15 08:48:32;;;;;;;17.50;9.82;;;;;;;;;;5012643;28;20033;-85
2021/05/15 08:50:58;;;;;;;22.10;9.45;;;;;;;;;;5011262;28;20018;-85
2021/05/15 08:53:24;;;;;;;16.70;9.98;;;;;;;;;;5012737;28;20045;-85
2021/05/15 08:55:49;;;;;;;14.25;7.63;;;;;;;;;;5012263;28;20018;-85
2021/05/15 08:58:14;;;;;;;15.85;9.52;;;;;;;;;;5012504;28;20010;-85
2021/05/15 09:00:41;;;;;;;15.68;9.18;;;;;;;;;;5012172;28;20483;-85
2021/05/15 09:03:12;;;;;;;13.65;8.18;;;;;;;;;;5012517;28;20028;-85
2021/05/15 09:05:39;;;;;;;8.00;5.45;;;;;;;;;;5011466;28;20060;-84
2021/05/15 09:08:07;;;;;;;12.32;7.13;;;;;;;;;;5011041;28;20116;-83
2021/05/15 09:10:33;;;;;;;9.15;5.60;;;;;;;;;;5011235;28;20033;-83
2021/05/15 09:13:11;;;;;;;11.05;5.93;;;;;;;;;;5012521;28;20025;-83
2021/05/15 09:15:37;;;;;;;8.30;6.50;;;;;;;;;;5011138;28;20030;-83
2021/05/15 09:18:03;;;;;;;11.10;6.50;;;;;;;;;;5020050;28;20042;-83
2021/05/15 09:20:29;;;;;;;12.02;7.78;;;;;;;;;;5020346;28;20487;-83
2021/05/15 09:22:54;;;;;;;11.02;7.10;;;;;;;;;;5011096;28;20162;-83
2021/05/15 09:25:20;;;;;;;13.95;8.25;;;;;;;;;;5011213;28;20106;-83
2021/05/15 09:27:46;;;;;;;12.15;7.05;;;;;;;;;;5011129;28;20445;-83
2021/05/15 09:30:11;;;;;;;12.55;7.63;;;;;;;;;;5012483;28;20021;-83
2021/05/15 09:32:37;;;;;;;12.57;8.30;;;;;;;;;;5028257;28;20025;-83
2021/05/15 09:35:03;;;;;;;12.30;7.82;;;;;;;;;;5024592;28;20025;-83
2021/05/15 09:37:30;;;;;;;14.00;8.80;;;;;;;;;;5020794;28;20455;-83
2021/05/15 09:39:56;;;;;;;16.35;8.00;;;;;;;;;;5010946;28;20143;-83
2021/05/15 09:42:21;;;;;;;15.25;8.68;;;;;;;;;;5017917;28;20487;-83
2021/05/15 09:44:46;;;;;;;14.57;8.32;;;;;;;;;;5051906;28;20473;-84
2021/05/15 09:47:12;;;;;;;14.48;8.75;;;;;;;;;;5033777;28;20025;-83
2021/05/15 09:49:37;;;;;;;13.63;7.80;;;;;;;;;;5011968;28;20026;-83
2021/05/15 09:52:04;;;;;;;10.82;6.72;;;;;;;;;;5018721;28;20069;-83
2021/05/15 09:54:31;;;;;;;9.82;6.00;;;;;;;;;;5017603;28;20457;-83
2021/05/15 09:56:59;;;;;;;11.77;4.93;;;;;;;;;;5013042;28;20026;-84
2021/05/15 09:59:31;;;;;;;9.63;5.93;;;;;;;;;;5075742;28;20022;-83
2021/05/15 10:01:58;;;;;;;8.23;4.85;;;;;;;;;;5023909;28;20030;-84
2021/05/15 10:04:24;;;;;;;9.43;4.95;;;;;;;;;;5019715;28;20114;-83
2021/05/15 10:06:50;;;;;;;10.27;4.20;;;;;;;;;;5011610;28;20484;-84
2021/05/15 10:09:24;;;;;;;8.40;3.95;;;;;;;;;;5077285;28;20450;-84
2021/05/15 10:11:49;;;;;;;9.68;5.10;;;;;;;;;;5036405;28;20058;-83
2021/05/15 10:14:14;;;;;;;11.93;4.72;;;;;;;;;;5025648;28;20050;-83
2021/05/15 10:16:39;;;;;;;7.57;3.70;;;;;;;;;;5017302;28;20489;-83
2021/05/15 10:19:05;;;;;;;7.78;4.18;;;;;;;;;;5079267;28;20027;-83
2021/05/15 10:21:30;;;;;;;12.48;4.38;;;;;;;;;;5013770;28;20021;-84
2021/05/15 10:23:55;;;;;;;10.48;4.60;;;;;;;;;;5017774;28;20014;-84
2021/05/15 10:26:22;;;;;;;7.70;3.53;;;;;;;;;;5018107;28;20014;-84
2021/05/15 10:29:17;;;;;;;2.90;1.92;;;;;;;;;;5019490;28;20471;-84
2021/05/15 10:31:44;;;;;;;4.55;2.95;;;;;;;;;;5021681;28;20339;-84
2021/05/15 10:34:10;;;;;;;6.25;3.38;;;;;;;;;;5043613;28;20026;-83
2021/05/15 10:36:48;;;;;;;1.85;0.88;;;;;;;;;;5034139;28;20029;-84
2021/05/15 10:39:26;;;;;;;4.75;2.38;;;;;;;;;;5054066;28;20026;-83
2021/05/15 10:41:51;;;;;;;3.50;1.65;;;;;;;;;;5031109;28;20037;-83
2021/05/15 10:44:16;;;;;;;10.10;2.75;;;;;;;;;;5068054;28;20022;-83
2021/05/15 10:46:45;;;;;;;6.00;2.88;;;;;;;;;;5054517;28;20019;-83
2021/05/15 10:49:16;;;;;;;10.52;2.35;;;;;;;;;;5059240;28;20018;-83
2021/05/15 10:51:51;;;;;;;6.40;2.40;;;;;;;;;;5010010;28;20405;-83
2021/05/15 10:54:29;;;;;;;7.45;2.20;;;;;;;;;;5022389;28;20029;-83
2021/05/15 10:56:59;;;;;;;8.35;2.67;;;;;;;;;;5043317;28;20016;-84
2021/05/15 10:59:25;;;;;;;6.38;2.60;;;;;;;;;;5027032;28;20357;-83
2021/05/15 11:01:51;;;;;;;14.77;3.20;;;;;;;;;;5011102;28;20025;-83
2021/05/15 11:04:37;;;;;;;6.55;2.80;;;;;;;;;;5009574;28;20014;-83
2021/05/15 11:07:02;;;;;;;5.13;2.47;;;;;;;;;;5077272;28;20058;-83
2021/05/15 11:09:27;;;;;;;6.20;2.33;;;;;;;;;;5011412;28;20030;-83
2021/05/15 11:11:54;;;;;;;3.85;1.70;;;;;;;;;;5009618;28;20465;-83
2021/05/15 11:14:27;;;;;;;2.95;1.60;;;;;;;;;;5010567;28;20030;-82
2021/05/15 11:17:22;;;;;;;9.95;2.20;;;;;;;;;;5009287;28;20018;-83
2021/05/15 11:19:52;;;;;;;3.85;1.80;;;;;;;;;;5014701;28;20026;-83
2021/05/15 11:22:17;;;;;;;4.15;1.70;;;;;;;;;;5010969;28;20488;-83
2021/05/15 11:24:53;;;;;;;6.60;1.85;;;;;;;;;;5009189;28;20017;-83
2021/05/15 11:27:19;;;;;;;5.35;1.75;;;;;;;;;;5012330;28;20104;-83
2021/05/15 11:29:44;;;;;;;6.00;2.30;;;;;;;;;;5015111;28;20110;-83
2021/05/15 11:32:14;;;;;;;7.03;1.80;;;;;;;;;;5010501;28;20018;-83
2021/05/15 11:34:40;;;;;;;7.55;2.30;;;;;;;;;;5010292;28;20022;-83
2021/05/15 11:37:06;;;;;;;8.73;3.33;;;;;;;;;;5015619;28;20018;-83
2021/05/15 11:39:31;;;;;;;9.20;2.15;;;;;;;;;;5057271;28;20059;-83
2021/05/15 11:42:11;;;;;;;3.60;1.60;;;;;;;;;;5023598;28;20512;-83
2021/05/15 11:44:37;;;;;;;4.20;1.60;;;;;;;;;;5041363;28;20390;-83
2021/05/15 11:47:03;;;;;;;4.78;1.70;;;;;;;;;;5031867;28;20042;-83
2021/05/15 11:49:29;;;;;;;5.57;1.92;;;;;;;;;;5008810;28;20181;-83
2021/05/15 11:51:58;;;;;;;5.78;1.40;;;;;;;;;;5027560;27;20117;-83
2021/05/15 11:54:23;;;;;;;5.70;1.55;;;;;;;;;;5010213;28;20022;-83
2021/05/15 11:56:52;;;;;;;10.70;1.67;;;;;;;;;;5016974;28;20090;-83
2021/05/15 11:59:20;;;;;;;7.75;1.70;;;;;;;;;;5009965;28;20029;-83
2021/05/15 12:01:45;;;;;;;3.20;1.77;;;;;;;;;;5016715;28;20038;-83
2021/05/15 12:04:16;;;;;;;8.93;1.58;;;;;;;;;;5008706;28;20024;-84
2021/05/15 12:06:42;;;;;;;6.25;1.50;;;;;;;;;;5015899;28;20121;-84
2021/05/15 12:09:14;;;;;;;2.25;1.30;;;;;;;;;;5008495;28;20119;-83
2021/05/15 12:11:40;;;;;;;5.22;1.58;;;;;;;;;;5008803;28;20473;-83
2021/05/15 12:14:05;;;;;;;4.00;1.35;;;;;;;;;;5008318;28;20113;-83
2021/05/15 12:16:32;;;;;;;5.85;1.35;;;;;;;;;;5009813;28;20461;-83
2021/05/15 12:18:58;;;;;;;5.70;1.10;;;;;;;;;;5015553;28;20022;-83
2021/05/15 12:21:24;;;;;;;3.53;1.23;;;;;;;;;;5008525;28;20024;-83
2021/05/15 12:23:49;;;;;;;4.18;1.38;;;;;;;;;;5009947;28;20026;-83
2021/05/15 12:26:16;;;;;;;6.75;1.45;;;;;;;;;;5014703;28;20047;-82
2021/05/15 12:28:45;;;;;;;3.85;1.30;;;;;;;;;;5015491;28;20025;-83
2021/05/15 12:31:27;;;;;;;9.30;1.50;;;;;;;;;;5008327;28;20384;-83
2021/05/15 12:33:53;;;;;;;4.63;1.70;;;;;;;;;;5009798;28;20030;-83
2021/05/15 12:36:19;;;;;;;10.85;1.70;;;;;;;;;;5014987;28;20384;-83
2021/05/15 12:38:48;;;;;;;3.72;1.80;;;;;;;;;;5008801;28;20021;-83
2021/05/15 12:41:15;;;;;;;4.80;1.80;;;;;;;;;;5005083;28;20045;-83
2021/05/15 12:43:42;;;;;;;7.28;2.20;;;;;;;;;;5020002;28;20029;-83
2021/05/15 12:46:08;;;;;;;12.63;2.30;;;;;;;;;;5065624;28;20019;-83
2021/05/15 12:48:39;;;;;;;3.60;2.10;;;;;;;;;;5029383;28;20070;-83
2021/05/15 12:51:04;;;;;;;5.07;1.85;;;;;;;;;;4998025;28;20489;-83
2021/05/15 12:53:30;;;;;;;6.93;2.08;;;;;;;;;;5008953;28;20132;-87
2021/05/15 12:55:56;;;;;;;10.23;2.28;;;;;;;;;;5029674;28;20421;-87
2021/05/15 12:58:23;;;;;;;4.68;1.60;;;;;;;;;;5075984;28;20022;-87
2021/05/15 13:01:15;;;;;;;3.20;1.52;;;;;;;;;;5017569;28;20491;-86
2021/05/15 13:03:47;;;;;;;7.32;1.70;;;;;;;;;;5007890;28;20396;-85
2021/05/15 13:06:16;;;;;;;3.38;1.33;;;;;;;;;;5030257;28;20033;-86
2021/05/15 13:08:42;;;;;;;7.75;1.55;;;;;;;;;;5011775;28;20014;-86
2021/05/15 13:11:14;;;;;;;2.35;1.50;;;;;;;;;;5051367;28;20362;-85
2021/05/15 13:13:40;;;;;;;11.95;1.63;;;;;;;;;;5011168;28;20018;-86
2021/05/15 13:16:06;;;;;;;4.00;1.38;;;;;;;;;;5043023;28;20026;-86
2021/05/15 13:18:31;;;;;;;3.38;1.30;;;;;;;;;;5022606;28;20480;-87
2021/05/15 13:20:56;;;;;;;5.50;1.67;;;;;;;;;;5021232;28;20016;-86
2021/05/15 13:23:21;;;;;;;7.38;1.75;;;;;;;;;;5012047;28;20018;-87
2021/05/15 13:25:47;;;;;;;8.00;1.80;;;;;;;;;;5013995;28;20018;-85
2021/05/15 13:28:12;;;;;;;4.05;1.70;;;;;;;;;;5019029;28;20037;-85
2021/05/15 13:30:37;;;;;;;6.05;1.70;;;;;;;;;;5011854;28;20397;-87
2021/05/15 13:33:02;;;;;;;4.22;1.50;;;;;;;;;;5025671;28;20105;-84
2021/05/15 13:35:28;;;;;;;4.28;1.63;;;;;;;;;;5017567;28;20026;-85
2021/05/15 13:37:53;;;;;;;5.10;1.70;;;;;;;;;;5029961;28;20018;-86
2021/05/15 13:40:18;;;;;;;4.30;1.63;;;;;;;;;;5013401;28;20030;-85
2021/05/15 13:42:43;;;;;;;8.88;1.92;;;;;;;;;;5015753;28;20021;-85
2021/05/15 13:45:09;;;;;;;4.10;1.75;;;;;;;;;;5018663;28;20033;-85
2021/05/15 13:47:34;;;;;;;6.78;2.00;;;;;;;;;;5058899;28;20063;-85
2021/05/15 13:49:59;;;;;;;4.15;1.92;;;;;;;;;;5069111;28;20034;-85
2021/05/15 13:52:25;;;;;;;4.50;2.10;;;;;;;;;;5018143;28;20029;-85
2021/05/15 13:54:51;;;;;;;5.47;2.40;;;;;;;;;;5011968;28;20029;-85
2021/05/15 13:57:16;;;;;;;6.05;1.92;;;;;;;;;;5028965;28;20028;-87
2021/05/15 13:59:41;;;;;;;3.88;1.90;;;;;;;;;;5011401;28;20018;-88
2021/05/15 14:02:07;;;;;;;3.38;1.98;;;;;;;;;;5043775;28;20020;-87
2021/05/15 14:04:32;;;;;;;10.60;1.70;;;;;;;;;;5037252;28;20076;-87
2021/05/15 14:06:57;;;;;;;5.20;1.70;;;;;;;;;;5043606;28;20022;-87
2021/05/15 14:09:22;;;;;;;6.60;2.22;;;;;;;;;;5067684;28;20018;-86
2021/05/15 14:11:47;;;;;;;6.22;2.17;;;;;;;;;;5056465;28;20011;-86
2021/05/15 14:14:12;;;;;;;4.20;1.50;;;;;;;;;;5059581;28;20025;-87
2021/05/15 14:16:38;;;;;;;4.45;1.85;;;;;;;;;;5047522;28;20025;-87
2021/05/15 14:19:03;;;;;;;4.60;1.75;;;;;;;;;;5031203;28;20511;-87
2021/05/15 14:21:28;;;;;;;4.03;1.55;;;;;;;;;;5003224;28;20026;-87